Time;durP1;ratioP1;P1;durP2;ratioP2;P2;SDS_P1;SDS_P2;PMS_P1;PMS_P2;Temp;Humidity;BMP_temperature;BMP_pressure;BME280_temperature;BME280_humidity;BME280_pressure;Samples;Min_cycle;Max_cycle;Signal;HPM_P1;HPM_P2
2023/04/04 00:00:35;;;;;;;1.42;0.40;;;2.50;99.90;;;;;;5082331;28;20119;-74
2023/04/04 00:03:01;;;;;;;3.53;0.98;;;2.50;99.90;;;;;;5057090;28;20041;-74
2023/04/04 00:05:27;;;;;;;3.22;1.08;;;2.50;99.90;;;;;;5079620;28;20055;-74
2023/04/04 00:07:52;;;;;;;1.80;0.75;;;2.50;99.90;;;;;;5080503;28;20052;-74
2023/04/04 00:10:18;;;;;;;1.90;0.70;;;2.50;99.90;;;;;;5061500;28;20055;-74
2023/04/04 00:12:44;;;;;;;1.45;0.75;;;2.50;99.90;;;;;;5086004;28;20025;-74
2023/04/04 00:15:10;;;;;;;2.33;0.90;;;2.40;99.90;;;;;;5077764;28;20053;-74
2023/04/04 00:17:35;;;;;;;2.65;1.05;;;2.40;99.90;;;;;;5060380;28;20093;-74
2023/04/04 00:20:03;;;;;;;1.15;0.77;;;2.40;99.90;;;;;;5055271;28;20125;-74
2023/04/04 00:22:28;;;;;;;2.15;1.17;;;2.30;99.90;;;;;;5080516;28;20414;-74
2023/04/04 00:24:54;;;;;;;1.73;0.98;;;2.40;99.90;;;;;;5082864;28;20303;-74
2023/04/04 00:27:20;;;;;;;2.10;1.00;;;2.30;99.90;;;;;;5079225;28;20047;-74
2023/04/04 00:29:46;;;;;;;1.95;0.77;;;2.30;99.90;;;;;;5083787;28;20035;-74
2023/04/04 00:32:11;;;;;;;2.17;1.00;;;2.40;99.90;;;;;;5080710;28;20054;-74
2023/04/04 00:34:37;;;;;;;1.80;0.95;;;2.30;99.90;;;;;;5109586;27;20160;-74
2023/04/04 00:37:06;;;;;;;1.92;0.75;;;2.40;99.90;;;;;;5078550;28;20109;-74
2023/04/04 00:39:32;;;;;;;2.53;0.88;;;2.40;99.90;;;;;;5073704;28;20106;-74
2023/04/04 00:41:57;;;;;;;1.98;1.23;;;2.40;99.90;;;;;;5076196;28;20436;-74
2023/04/04 00:44:23;;;;;;;2.58;1.15;;;2.40;99.90;;;;;;5084745;28;20041;-74
2023/04/04 00:46:51;;;;;;;1.58;0.88;;;2.40;99.90;;;;;;5082311;28;20036;-74
2023/04/04 00:49:17;;;;;;;2.75;1.00;;;2.40;99.90;;;;;;5109411;27;20040;-74
2023/04/04 00:51:43;;;;;;;2.88;0.82;;;2.40;99.90;;;;;;5059713;28;20051;-74
2023/04/04 00:54:09;;;;;;;4.50;1.42;;;2.40;99.90;;;;;;5075125;28;20032;-74
2023/04/04 00:56:38;;;;;;;3.13;1.10;;;2.40;99.90;;;;;;5072626;28;20044;-74
2023/04/04 00:59:04;;;;;;;3.08;1.20;;;2.40;99.90;;;;;;5110685;27;20047;-74
2023/04/04 01:01:31;;;;;;;2.42;0.85;;;2.40;99.90;;;;;;5058870;28;20036;-74
2023/04/04 01:03:57;;;;;;;2.58;0.77;;;2.30;99.90;;;;;;5088756;28;20131;-74
2023/04/04 01:06:23;;;;;;;2.03;0.90;;;2.40;99.90;;;;;;5108908;27;20134;-74
2023/04/04 01:08:50;;;;;;;2.08;0.82;;;2.30;99.90;;;;;;5075439;28;20082;-74
2023/04/04 01:11:16;;;;;;;2.65;1.05;;;2.30;99.90;;;;;;5079700;28;20039;-74
2023/04/04 01:13:43;;;;;;;6.90;0.90;;;2.20;99.90;;;;;;5110928;27;20048;-74
2023/04/04 01:16:08;;;;;;;2.80;1.08;;;2.20;99.90;;;;;;5079453;28;20293;-74
2023/04/04 01:18:35;;;;;;;2.17;0.77;;;2.20;99.90;;;;;;5083270;28;20185;-74
2023/04/04 01:21:06;;;;;;;1.65;0.82;;;2.10;99.90;;;;;;5077274;28;20039;-74
2023/04/04 01:23:43;;;;;;;1.02;0.60;;;2.10;99.90;;;;;;5077052;28;20404;-74
2023/04/04 01:26:09;;;;;;;1.02;0.70;;;2.10;99.90;;;;;;5078625;28;20176;-74
2023/04/04 01:28:35;;;;;;;3.13;1.23;;;2.10;99.90;;;;;;5059993;28;20149;-74
2023/04/04 01:31:04;;;;;;;5.35;1.30;;;2.10;99.90;;;;;;5076370;28;20349;-74
2023/04/04 01:34:16;;;;;;;3.60;1.15;;;2.10;99.90;;;;;;5074802;28;20036;-74
2023/04/04 01:37:00;;;;;;;2.85;1.10;;;2.10;99.90;;;;;;5074560;28;20584;-74
2023/04/04 01:39:43;;;;;;;2.53;0.77;;;2.10;99.90;;;;;;5060813;28;20180;-73
2023/04/04 01:42:11;;;;;;;7.28;1.67;;;2.10;99.90;;;;;;5075891;28;20389;-74
2023/04/04 01:44:37;;;;;;;2.50;0.88;;;2.10;99.90;;;;;;5083029;28;20467;-74
2023/04/04 01:47:08;;;;;;;4.25;1.67;;;2.10;99.90;;;;;;5079120;28;20028;-74
2023/04/04 01:49:34;;;;;;;4.38;0.88;;;2.10;99.90;;;;;;5089910;28;20036;-74
2023/04/04 01:52:01;;;;;;;3.15;1.33;;;2.10;99.90;;;;;;5056278;28;20474;-74
2023/04/04 01:54:27;;;;;;;3.35;1.25;;;2.10;99.90;;;;;;5074318;28;20173;-74
2023/04/04 01:56:53;;;;;;;1.92;0.95;;;2.10;99.90;;;;;;5074931;28;20032;-74
2023/04/04 01:59:18;;;;;;;4.25;1.35;;;2.10;99.90;;;;;;5071284;28;20070;-74
2023/04/04 02:01:44;;;;;;;2.13;1.42;;;2.10;99.90;;;;;;5056087;28;20036;-74
2023/04/04 02:04:11;;;;;;;2.55;1.23;;;2.10;99.90;;;;;;5058676;28;20041;-74
2023/04/04 02:06:37;;;;;;;6.07;1.55;;;2.00;99.90;;;;;;5072194;28;20101;-74
2023/04/04 02:09:03;;;;;;;2.90;1.17;;;2.00;99.90;;;;;;5079131;28;20033;-74
2023/04/04 02:11:28;;;;;;;3.20;1.10;;;2.00;99.90;;;;;;5075102;28;20127;-74
2023/04/04 02:13:54;;;;;;;2.72;1.33;;;2.00;99.90;;;;;;5080727;28;20048;-74
2023/04/04 02:16:20;;;;;;;3.85;1.05;;;2.00;99.90;;;;;;5073717;28;20078;-74
2023/04/04 02:18:45;;;;;;;2.78;1.13;;;2.00;99.90;;;;;;5058774;28;20044;-74
2023/04/04 02:21:11;;;;;;;1.83;1.00;;;2.00;99.90;;;;;;5076934;28;20047;-74
2023/04/04 02:23:37;;;;;;;2.50;0.93;;;2.00;99.90;;;;;;5107533;27;20056;-74
2023/04/04 02:26:03;;;;;;;2.88;1.13;;;2.00;99.90;;;;;;5104874;27;20512;-74
2023/04/04 02:28:30;;;;;;;3.20;1.48;;;1.90;99.90;;;;;;5075904;28;20076;-74
2023/04/04 02:31:01;;;;;;;1.88;0.73;;;1.90;99.90;;;;;;5058526;28;20677;-74
2023/04/04 02:33:27;;;;;;;2.80;1.10;;;1.80;99.90;;;;;;5086144;28;20044;-74
2023/04/04 02:35:57;;;;;;;2.03;1.15;;;1.80;99.90;;;;;;5056005;28;20135;-74
2023/04/04 02:38:22;;;;;;;3.00;1.30;;;1.80;99.90;;;;;;5078812;28;20159;-74
2023/04/04 02:40:48;;;;;;;3.25;1.23;;;1.70;99.90;;;;;;5061848;28;20127;-74
2023/04/04 02:43:14;;;;;;;2.97;1.38;;;1.70;99.90;;;;;;5075581;28;20429;-74
2023/04/04 02:45:40;;;;;;;2.53;1.23;;;1.70;99.90;;;;;;5055700;28;20516;-74
2023/04/04 02:48:06;;;;;;;3.17;1.10;;;1.60;99.90;;;;;;5079435;28;20118;-74
2023/04/04 02:50:32;;;;;;;3.28;1.23;;;1.60;99.90;;;;;;5077366;28;20743;-74
2023/04/04 02:53:01;;;;;;;1.13;0.70;;;1.60;99.90;;;;;;5074255;28;20111;-74
2023/04/04 02:55:27;;;;;;;2.55;0.82;;;1.60;99.90;;;;;;5064203;28;20066;-74
2023/04/04 02:57:52;;;;;;;2.63;1.00;;;1.60;99.90;;;;;;5073421;28;20044;-74
2023/04/04 03:00:18;;;;;;;1.20;0.70;;;1.60;99.90;;;;;;5073457;28;20371;-74
2023/04/04 03:02:45;;;;;;;3.00;1.23;;;1.60;99.90;;;;;;5078809;28;20097;-74
2023/04/04 03:05:10;;;;;;;3.08;1.13;;;1.60;99.90;;;;;;5076297;28;20553;-73
2023/04/04 03:07:37;;;;;;;3.53;1.00;;;1.50;99.90;;;;;;5078604;28;20119;-74
2023/04/04 03:10:03;;;;;;;3.10;1.00;;;1.50;99.90;;;;;;5078829;28;20234;-74
2023/04/04 03:12:28;;;;;;;3.63;1.00;;;1.50;99.90;;;;;;5076955;28;20196;-73
2023/04/04 03:14:54;;;;;;;2.38;1.55;;;1.50;99.90;;;;;;5078714;28;20044;-73
2023/04/04 03:17:19;;;;;;;1.48;0.90;;;1.50;99.90;;;;;;5070184;28;20055;-74
2023/04/04 03:19:45;;;;;;;2.10;1.00;;;1.50;99.90;;;;;;5077323;28;20032;-73
2023/04/04 03:22:11;;;;;;;4.32;1.25;;;1.50;99.90;;;;;;5075148;28;20048;-73
2023/04/04 03:24:36;;;;;;;1.52;0.80;;;1.40;99.90;;;;;;5072519;28;20034;-73
2023/04/04 03:27:02;;;;;;;5.82;0.98;;;1.40;99.90;;;;;;5079725;28;20051;-73
2023/04/04 03:29:28;;;;;;;2.38;1.17;;;1.40;99.90;;;;;;5090965;28;20028;-73
2023/04/04 03:31:53;;;;;;;3.35;1.00;;;1.40;99.90;;;;;;5072106;28;20029;-73
2023/04/04 03:34:19;;;;;;;2.60;1.13;;;1.40;99.90;;;;;;5086867;28;20040;-73
2023/04/04 03:36:45;;;;;;;2.00;1.25;;;1.30;99.90;;;;;;5079424;28;20035;-73
2023/04/04 03:39:11;;;;;;;3.60;1.30;;;1.30;99.90;;;;;;5076430;28;20047;-74
2023/04/04 03:41:37;;;;;;;2.65;1.23;;;1.30;99.90;;;;;;5076237;28;20562;-74
2023/04/04 03:44:03;;;;;;;1.55;0.80;;;1.30;99.90;;;;;;5078110;28;20032;-74
2023/04/04 03:46:29;;;;;;;2.72;1.10;;;1.30;99.90;;;;;;5103068;28;20040;-74
2023/04/04 03:48:55;;;;;;;6.63;0.85;;;1.30;99.90;;;;;;5051976;28;20097;-74
2023/04/04 03:51:26;;;;;;;1.25;0.85;;;1.30;99.90;;;;;;5105374;28;20363;-74
2023/04/04 03:53:51;;;;;;;4.22;1.42;;;1.30;99.90;;;;;;5105645;28;20575;-74
2023/04/04 03:56:18;;;;;;;1.77;0.90;;;1.30;99.90;;;;;;5058008;28;20129;-73
2023/04/04 03:58:44;;;;;;;3.13;1.15;;;1.20;99.90;;;;;;5077928;28;20032;-74
2023/04/04 04:01:10;;;;;;;3.70;1.88;;;1.20;99.90;;;;;;5062110;28;20167;-74
2023/04/04 04:03:36;;;;;;;2.22;1.00;;;1.20;99.90;;;;;;5058224;28;20137;-73
2023/04/04 04:06:02;;;;;;;4.45;1.60;;;1.20;99.90;;;;;;5071283;28;20569;-74
2023/04/04 04:08:27;;;;;;;2.58;1.20;;;1.30;99.90;;;;;;5075504;28;20047;-74
2023/04/04 04:10:53;;;;;;;4.50;1.20;;;1.20;99.90;;;;;;5071631;28;20217;-74
2023/04/04 04:13:19;;;;;;;3.33;0.95;;;1.20;99.90;;;;;;5086286;28;20047;-74
2023/04/04 04:15:45;;;;;;;3.83;1.50;;;1.20;99.90;;;;;;5074414;28;20036;-74
2023/04/04 04:18:10;;;;;;;1.45;0.75;;;1.20;99.90;;;;;;5060720;28;20040;-74
2023/04/04 04:20:36;;;;;;;3.35;1.15;;;1.20;99.90;;;;;;5073503;28;20080;-74
2023/04/04 04:23:02;;;;;;;4.47;1.17;;;1.20;99.90;;;;;;5076434;28;20043;-74
2023/04/04 04:25:27;;;;;;;2.83;1.10;;;1.20;99.90;;;;;;5073371;28;20085;-73
2023/04/04 04:27:56;;;;;;;1.77;0.80;;;1.10;99.90;;;;;;5078513;28;20040;-74
2023/04/04 04:30:22;;;;;;;2.83;1.10;;;1.10;99.90;;;;;;5076819;28;20036;-74
2023/04/04 04:32:51;;;;;;;2.20;1.42;;;1.10;99.90;;;;;;5071406;28;20124;-74
2023/04/04 04:35:16;;;;;;;1.80;0.75;;;1.10;99.90;;;;;;5087695;28;20028;-74
2023/04/04 04:37:42;;;;;;;2.20;1.10;;;1.10;99.90;;;;;;5077624;28;20521;-74
2023/04/04 04:40:08;;;;;;;2.58;1.02;;;1.10;99.90;;;;;;5060490;28;20063;-74
2023/04/04 04:42:33;;;;;;;3.67;1.27;;;1.10;99.90;;;;;;5076702;28;20032;-74
2023/04/04 04:44:59;;;;;;;5.80;1.13;;;1.00;99.90;;;;;;5082295;28;20520;-74
2023/04/04 04:47:25;;;;;;;3.47;1.30;;;1.10;99.90;;;;;;5081154;28;20497;-73
2023/04/04 04:49:50;;;;;;;4.95;1.50;;;1.00;99.90;;;;;;5059711;28;20055;-74
2023/04/04 04:52:18;;;;;;;1.85;1.20;;;1.00;99.90;;;;;;5078006;28;20406;-74
2023/04/04 04:54:43;;;;;;;1.58;0.93;;;1.00;99.90;;;;;;5078549;28;20554;-74
2023/04/04 04:57:09;;;;;;;4.47;1.17;;;1.00;99.90;;;;;;5076074;28;20278;-74
2023/04/04 04:59:35;;;;;;;2.22;0.73;;;1.00;99.90;;;;;;5080263;28;20043;-74
2023/04/04 05:02:01;;;;;;;4.68;1.63;;;1.00;99.90;;;;;;5106970;27;20054;-74
2023/04/04 05:04:27;;;;;;;26.40;10.05;;;1.00;99.90;;;;;;5057612;28;20115;-74
2023/04/04 05:06:52;;;;;;;25.92;7.97;;;1.00;99.90;;;;;;5073648;28;20040;-74
2023/04/04 05:09:18;;;;;;;18.45;7.25;;;1.00;99.90;;;;;;5080689;28;20125;-74
2023/04/04 05:11:43;;;;;;;9.45;4.70;;;1.00;99.90;;;;;;5078464;28;20053;-74
2023/04/04 05:14:09;;;;;;;6.43;2.80;;;1.00;99.90;;;;;;5080036;28;20040;-74
2023/04/04 05:16:35;;;;;;;4.30;1.95;;;1.00;99.90;;;;;;5072819;28;20115;-74
2023/04/04 05:19:01;;;;;;;3.30;1.63;;;1.00;99.90;;;;;;5079212;28;20370;-74
2023/04/04 05:21:26;;;;;;;3.28;1.58;;;1.00;99.90;;;;;;5077350;28;20607;-74
2023/04/04 05:23:52;;;;;;;4.43;2.13;;;1.00;99.90;;;;;;5052961;28;20638;-74
2023/04/04 05:26:18;;;;;;;3.90;1.00;;;1.10;99.90;;;;;;5065039;28;20136;-74
2023/04/04 05:28:44;;;;;;;3.00;0.90;;;1.10;99.90;;;;;;5076462;28;20036;-74
2023/04/04 05:31:09;;;;;;;2.58;1.58;;;1.10;99.90;;;;;;5082149;28;20032;-74
2023/04/04 05:33:35;;;;;;;3.30;1.65;;;1.10;99.90;;;;;;5073118;28;20090;-74
2023/04/04 05:36:01;;;;;;;2.28;1.08;;;1.10;99.90;;;;;;5074771;28;20062;-74
2023/04/04 05:38:27;;;;;;;2.67;0.93;;;1.10;99.90;;;;;;5059084;28;20047;-76
2023/04/04 05:40:53;;;;;;;4.63;2.00;;;1.20;99.90;;;;;;5077527;28;20050;-74
2023/04/04 05:43:18;;;;;;;5.93;1.67;;;1.20;99.90;;;;;;5076298;28;20135;-74
2023/04/04 05:45:44;;;;;;;3.65;1.25;;;1.20;99.90;;;;;;5062294;28;20261;-74
2023/04/04 05:48:11;;;;;;;4.90;1.45;;;1.20;99.90;;;;;;5072234;28;20567;-74
2023/04/04 05:50:36;;;;;;;4.10;1.45;;;1.20;99.90;;;;;;5100482;27;20028;-74
2023/04/04 05:53:03;;;;;;;4.88;1.50;;;1.20;99.90;;;;;;5075481;28;20032;-73
2023/04/04 05:55:29;;;;;;;5.47;1.67;;;1.30;99.90;;;;;;5095664;28;20064;-74
2023/04/04 05:57:55;;;;;;;1.83;1.08;;;1.20;99.90;;;;;;5076963;28;20079;-74
2023/04/04 06:00:21;;;;;;;3.33;1.10;;;1.30;99.90;;;;;;5101747;27;20040;-74
2023/04/04 06:02:47;;;;;;;2.47;1.00;;;1.30;99.90;;;;;;5068406;28;20114;-74
2023/04/04 06:05:13;;;;;;;6.72;1.40;;;1.40;99.90;;;;;;5072522;28;20039;-74
2023/04/04 06:07:38;;;;;;;1.58;0.95;;;1.40;99.90;;;;;;5072673;28;20040;-74
2023/04/04 06:10:05;;;;;;;3.83;1.48;;;1.40;99.90;;;;;;5073246;28;20074;-73
2023/04/04 06:12:30;;;;;;;3.70;1.15;;;1.40;99.90;;;;;;5056223;28;20102;-74
2023/04/04 06:14:56;;;;;;;4.38;1.42;;;1.40;99.90;;;;;;5074253;28;20502;-74
2023/04/04 06:17:23;;;;;;;3.50;1.02;;;1.40;99.90;;;;;;5080706;28;20485;-74
2023/04/04 06:19:48;;;;;;;2.10;1.30;;;1.40;99.90;;;;;;5075447;28;20154;-73
2023/04/04 06:22:16;;;;;;;3.20;1.15;;;1.50;99.90;;;;;;5074321;28;20039;-75
2023/04/04 06:24:42;;;;;;;4.60;1.35;;;1.50;99.90;;;;;;5090194;28;20159;-74
2023/04/04 06:27:08;;;;;;;2.80;0.93;;;1.60;99.90;;;;;;5068995;28;20758;-74
2023/04/04 06:29:33;;;;;;;1.75;0.93;;;1.50;99.90;;;;;;5075779;28;20063;-73
2023/04/04 06:31:59;;;;;;;2.60;1.10;;;1.60;99.90;;;;;;5061020;28;20100;-74
2023/04/04 06:34:25;;;;;;;3.00;0.80;;;1.60;99.90;;;;;;5061179;28;20072;-74
2023/04/04 06:36:51;;;;;;;4.22;1.08;;;1.60;99.90;;;;;;5074698;28;20074;-73
2023/04/04 06:39:16;;;;;;;0.77;0.60;;;1.60;99.90;;;;;;5074272;28;20036;-73
2023/04/04 06:41:42;;;;;;;2.78;1.10;;;1.70;99.90;;;;;;5103112;27;20036;-73
2023/04/04 06:44:08;;;;;;;2.35;0.35;;;1.70;99.90;;;;;;5109879;27;20043;-73
2023/04/04 06:46:36;;;;;;;3.58;0.98;;;1.70;99.90;;;;;;5061996;28;20029;-73
2023/04/04 06:49:01;;;;;;;3.58;1.20;;;1.70;99.90;;;;;;5083567;28;20028;-74
2023/04/04 06:51:27;;;;;;;2.33;0.90;;;1.80;99.90;;;;;;5054071;28;20040;-79
2023/04/04 06:53:57;;;;;;;1.95;0.95;;;1.80;99.90;;;;;;5110095;27;20036;-78
2023/04/04 06:56:22;;;;;;;1.13;0.80;;;1.90;99.90;;;;;;5077136;28;20046;-79
2023/04/04 06:58:49;;;;;;;1.42;0.88;;;1.90;99.90;;;;;;5062848;28;20032;-74
2023/04/04 07:01:15;;;;;;;2.55;0.80;;;2.00;99.90;;;;;;5077257;28;20036;-73
2023/04/04 07:03:43;;;;;;;4.20;0.90;;;2.00;99.90;;;;;;5073258;28;20063;-73
2023/04/04 07:06:09;;;;;;;1.33;0.68;;;2.00;99.90;;;;;;5084770;28;20036;-74
2023/04/04 07:08:34;;;;;;;1.58;0.50;;;2.10;99.90;;;;;;5091618;28;20042;-74
2023/04/04 07:11:00;;;;;;;1.98;0.85;;;2.10;99.90;;;;;;5080784;28;20098;-74
2023/04/04 07:13:26;;;;;;;2.20;0.73;;;2.20;99.90;;;;;;5078672;28;20115;-73
2023/04/04 07:15:52;;;;;;;3.00;0.70;;;2.20;99.90;;;;;;5061421;28;20041;-73
2023/04/04 07:18:17;;;;;;;3.63;0.57;;;2.30;99.90;;;;;;5078125;28;20501;-73
2023/04/04 07:20:46;;;;;;;2.30;0.73;;;2.30;99.90;;;;;;5072085;28;20269;-73
2023/04/04 07:23:12;;;;;;;1.52;0.68;;;2.40;99.90;;;;;;5100948;27;20469;-73
2023/04/04 07:25:38;;;;;;;1.05;0.60;;;2.40;99.90;;;;;;5078997;28;20597;-73
2023/04/04 07:28:04;;;;;;;1.15;0.60;;;2.50;99.90;;;;;;5077455;28;20043;-73
2023/04/04 07:30:31;;;;;;;3.25;1.13;;;2.50;99.90;;;;;;5074843;28;20506;-73
2023/04/04 07:33:01;;;;;;;1.60;0.80;;;2.50;99.90;;;;;;5075737;28;20040;-73
2023/04/04 07:35:27;;;;;;;1.40;0.70;;;2.60;99.90;;;;;;5109216;27;20036;-74
2023/04/04 07:37:53;;;;;;;2.10;0.80;;;2.60;99.90;;;;;;5072708;28;20052;-72
2023/04/04 07:40:19;;;;;;;1.30;0.32;;;2.70;99.90;;;;;;5080888;28;20042;-74
2023/04/04 07:42:45;;;;;;;1.25;0.60;;;2.80;99.90;;;;;;5060313;28;20037;-73
2023/04/04 07:45:14;;;;;;;1.33;0.50;;;2.80;99.90;;;;;;5062683;28;20040;-73
2023/04/04 07:47:43;;;;;;;3.33;0.40;;;2.90;99.90;;;;;;5074102;28;20040;-73
2023/04/04 07:50:10;;;;;;;1.45;0.38;;;2.90;99.90;;;;;;5105176;28;20032;-74
2023/04/04 07:52:36;;;;;;;1.00;0.50;;;3.00;99.90;;;;;;5074899;28;20055;-73
2023/04/04 07:55:02;;;;;;;1.95;0.80;;;3.00;99.90;;;;;;5080353;28;20371;-73
2023/04/04 07:57:28;;;;;;;1.08;0.70;;;3.10;99.90;;;;;;5074841;28;20078;-73
2023/04/04 07:59:54;;;;;;;2.70;0.60;;;3.10;99.90;;;;;;5078859;28;20074;-73
2023/04/04 08:02:20;;;;;;;2.42;0.60;;;3.10;99.90;;;;;;5058707;28;20041;-73
2023/04/04 08:04:45;;;;;;;2.13;0.50;;;3.20;99.90;;;;;;5073849;28;20145;-73
2023/04/04 08:07:11;;;;;;;2.20;0.68;;;3.20;99.90;;;;;;5069638;28;20040;-73
2023/04/04 08:09:37;;;;;;;1.83;0.50;;;3.30;99.90;;;;;;5082126;28;20080;-73
2023/04/04 08:12:04;;;;;;;1.67;0.60;;;3.30;99.90;;;;;;5064191;28;20073;-73
2023/04/04 08:14:30;;;;;;;0.57;0.40;;;3.30;99.90;;;;;;5063240;28;20135;-74
2023/04/04 08:16:55;;;;;;;1.27;0.52;;;3.40;99.90;;;;;;5056926;28;20131;-73
2023/04/04 08:19:22;;;;;;;1.48;0.50;;;3.40;99.90;;;;;;5058231;28;20477;-73
2023/04/04 08:21:48;;;;;;;1.35;0.63;;;3.50;99.90;;;;;;5109201;27;20123;-74
2023/04/04 08:24:14;;;;;;;1.02;0.50;;;3.50;99.90;;;;;;5061666;28;20040;-73
2023/04/04 08:26:40;;;;;;;1.75;0.63;;;3.50;99.90;;;;;;5076692;28;20307;-73
2023/04/04 08:29:06;;;;;;;1.58;0.82;;;3.60;99.90;;;;;;5072872;28;20383;-73
2023/04/04 08:31:33;;;;;;;2.75;0.80;;;3.70;99.90;;;;;;5077020;28;20059;-74
2023/04/04 08:34:00;;;;;;;1.15;0.55;;;3.80;99.90;;;;;;5073465;28;20592;-74
2023/04/04 08:36:26;;;;;;;2.20;0.57;;;3.80;99.90;;;;;;5106917;27;20719;-74
2023/04/04 08:38:52;;;;;;;1.75;0.93;;;3.90;99.90;;;;;;5081863;28;20059;-74
2023/04/04 08:41:18;;;;;;;1.23;0.68;;;3.90;99.90;;;;;;5086310;28;20462;-74
2023/04/04 08:43:46;;;;;;;1.98;0.50;;;4.00;99.90;;;;;;5080308;28;20451;-74
2023/04/04 08:46:14;;;;;;;1.98;0.75;;;4.00;99.90;;;;;;5072404;28;20486;-74
2023/04/04 08:48:42;;;;;;;1.73;0.95;;;4.00;99.90;;;;;;5088960;28;20055;-74
2023/04/04 08:51:11;;;;;;;2.13;0.77;;;4.10;99.90;;;;;;5088102;28;20180;-73
2023/04/04 08:53:37;;;;;;;1.48;1.05;;;4.20;99.90;;;;;;5074146;28;20462;-74
2023/04/04 08:56:03;;;;;;;4.00;1.02;;;4.30;99.90;;;;;;5056008;28;20044;-74
2023/04/04 08:58:28;;;;;;;1.30;0.70;;;4.30;99.90;;;;;;5064393;28;20043;-74
2023/04/04 09:00:55;;;;;;;2.50;1.20;;;4.30;99.90;;;;;;5076279;28;20093;-74
2023/04/04 09:03:26;;;;;;;1.50;0.88;;;4.40;99.90;;;;;;5080112;28;20058;-74
2023/04/04 09:05:53;;;;;;;1.67;1.00;;;4.50;99.90;;;;;;5073154;28;20040;-74
2023/04/04 09:08:19;;;;;;;2.17;0.80;;;4.50;99.90;;;;;;5057847;28;20086;-74
2023/04/04 09:10:45;;;;;;;2.25;1.00;;;4.60;99.90;;;;;;5060631;28;20393;-73
2023/04/04 09:13:11;;;;;;;1.83;0.93;;;4.60;99.90;;;;;;5062102;28;20036;-74
2023/04/04 09:15:40;;;;;;;1.40;0.68;;;4.60;99.70;;;;;;5079470;28;20134;-74
2023/04/04 09:18:05;;;;;;;3.10;0.88;;;4.60;99.20;;;;;;5085912;28;20159;-74
2023/04/04 09:20:45;;;;;;;2.53;0.70;;;4.60;98.20;;;;;;5073966;28;20131;-74
2023/04/04 09:23:13;;;;;;;1.75;0.70;;;4.60;96.40;;;;;;5095066;28;20429;-74
2023/04/04 09:25:51;;;;;;;0.93;0.47;;;4.70;97.50;;;;;;5081701;28;20040;-74
2023/04/04 09:28:18;;;;;;;1.25;0.63;;;4.70;97.20;;;;;;5089402;28;20032;-74
2023/04/04 09:30:47;;;;;;;0.68;0.40;;;4.70;97.20;;;;;;5057685;28;20618;-74
2023/04/04 09:33:14;;;;;;;2.22;0.52;;;4.70;96.40;;;;;;5059897;28;20040;-74
2023/04/04 09:35:45;;;;;;;3.08;1.10;;;4.80;95.30;;;;;;5076198;28;20046;-74
2023/04/04 09:38:13;;;;;;;1.85;0.45;;;4.80;94.60;;;;;;5060272;28;20082;-74
2023/04/04 09:40:40;;;;;;;1.42;0.60;;;4.80;95.10;;;;;;5077151;28;20350;-74
2023/04/04 09:43:07;;;;;;;0.52;0.30;;;4.90;95.70;;;;;;5107005;27;20036;-74
2023/04/04 09:45:34;;;;;;;0.77;0.30;;;4.90;94.20;;;;;;5078935;28;20044;-74
2023/04/04 09:48:01;;;;;;;1.60;0.40;;;4.90;93.40;;;;;;5057109;28;20076;-74
2023/04/04 09:50:29;;;;;;;1.00;0.40;;;4.90;94.50;;;;;;5063399;28;20308;-74
2023/04/04 09:52:58;;;;;;;1.30;0.63;;;5.00;94.00;;;;;;5078455;28;20045;-74
2023/04/04 09:55:36;;;;;;;1.23;0.50;;;5.00;93.60;;;;;;5059064;28;20378;-74
2023/04/04 09:58:12;;;;;;;1.33;0.70;;;5.00;91.80;;;;;;5079284;28;20045;-74
2023/04/04 10:00:47;;;;;;;2.25;0.50;;;5.10;91.20;;;;;;5079629;28;20032;-74
2023/04/04 10:03:17;;;;;;;1.20;0.50;;;5.10;92.80;;;;;;5086831;28;20493;-74
2023/04/04 10:05:46;;;;;;;1.85;0.65;;;5.10;92.90;;;;;;5062757;28;20040;-74
2023/04/04 10:08:21;;;;;;;2.08;0.98;;;5.20;93.60;;;;;;5090026;28;20029;-74
2023/04/04 10:10:48;;;;;;;2.10;0.50;;;5.20;92.10;;;;;;5053217;28;20032;-74
2023/04/04 10:13:21;;;;;;;2.13;0.47;;;5.30;92.20;;;;;;5078613;28;20145;-77
2023/04/04 10:15:47;;;;;;;1.02;0.60;;;5.30;90.10;;;;;;5078960;28;20052;-73
2023/04/04 10:18:14;;;;;;;2.72;0.50;;;5.40;90.90;;;;;;5096557;28;20040;-73
2023/04/04 10:20:42;;;;;;;0.93;0.50;;;5.40;91.10;;;;;;5057192;28;20444;-73
2023/04/04 10:23:07;;;;;;;2.58;0.60;;;5.40;90.50;;;;;;5103474;27;20037;-73
2023/04/04 10:25:35;;;;;;;3.10;0.65;;;5.50;91.10;;;;;;5077323;28;20198;-73
2023/04/04 10:28:01;;;;;;;0.90;0.50;;;5.50;91.20;;;;;;5056876;28;20048;-73
2023/04/04 10:30:27;;;;;;;1.95;0.77;;;5.50;92.10;;;;;;5061431;28;20092;-73
2023/04/04 10:33:05;;;;;;;0.82;0.52;;;5.50;91.50;;;;;;5075100;28;20040;-73
2023/04/04 10:35:33;;;;;;;2.03;0.77;;;5.50;91.10;;;;;;5076574;28;20033;-73
2023/04/04 10:38:02;;;;;;;1.85;0.65;;;5.50;92.40;;;;;;5085686;28;20474;-73
2023/04/04 10:40:37;;;;;;;2.63;0.50;;;5.50;91.60;;;;;;5056436;28;20048;-73
2023/04/04 10:43:06;;;;;;;0.90;0.40;;;5.50;91.70;;;;;;5073953;28;20513;-73
2023/04/04 10:45:32;;;;;;;1.40;0.73;;;5.60;91.20;;;;;;5071634;28;20037;-74
2023/04/04 10:48:01;;;;;;;1.52;0.77;;;5.60;89.20;;;;;;5071355;28;20032;-73
2023/04/04 10:50:27;;;;;;;3.15;0.80;;;5.70;89.40;;;;;;5106120;27;20039;-73
2023/04/04 10:52:53;;;;;;;2.20;1.08;;;5.70;90.90;;;;;;5061257;28;20028;-73
2023/04/04 10:55:19;;;;;;;2.63;1.00;;;5.70;91.50;;;;;;5057501;28;20486;-73
2023/04/04 10:57:50;;;;;;;1.83;0.50;;;5.80;89.00;;;;;;5080868;28;20044;-73
2023/04/04 11:00:18;;;;;;;1.42;0.70;;;5.90;83.50;;;;;;5095108;28;20054;-73
2023/04/04 11:03:00;;;;;;;0.80;0.60;;;5.90;87.70;;;;;;5077920;28;20044;-73
2023/04/04 11:05:29;;;;;;;1.52;0.80;;;5.90;87.20;;;;;;5077373;28;20039;-73
2023/04/04 11:08:01;;;;;;;1.20;0.68;;;6.00;84.00;;;;;;5076877;28;20059;-73
2023/04/04 11:10:35;;;;;;;1.45;0.60;;;6.00;84.00;;;;;;5101840;27;20167;-73
2023/04/04 11:13:30;;;;;;;4.43;1.00;;;6.00;86.00;;;;;;5105053;27;20036;-73
2023/04/04 11:15:58;;;;;;;2.42;0.57;;;6.10;72.80;;;;;;5073187;28;20051;-74
2023/04/04 11:18:42;;;;;;;3.35;0.93;;;6.10;83.60;;;;;;5066370;28;20043;-74
2023/04/04 11:21:17;;;;;;;1.20;0.57;;;6.20;78.30;;;;;;5068444;28;20047;-74
2023/04/04 11:23:48;;;;;;;3.53;0.90;;;6.20;82.90;;;;;;5062835;28;20063;-74
2023/04/04 11:26:34;;;;;;;1.45;0.57;;;6.20;82.40;;;;;;5073606;28;20052;-74
2023/04/04 11:29:06;;;;;;;5.13;0.98;;;6.20;80.90;;;;;;5102113;27;20521;-74
2023/04/04 11:31:33;;;;;;;2.20;0.75;;;6.30;74.90;;;;;;5080103;28;20379;-74
2023/04/04 11:34:02;;;;;;;1.45;0.60;;;6.30;80.10;;;;;;5058569;28;20047;-74
2023/04/04 11:36:37;;;;;;;2.63;0.80;;;6.30;80.10;;;;;;5060712;28;20059;-74
2023/04/04 11:39:08;;;;;;;1.93;0.83;;;6.30;78.40;;;;;;5074833;28;21038;-74
2023/04/04 11:41:59;;;;;;;1.13;0.60;;;6.30;81.30;;;;;;5077090;28;20298;-74
2023/04/04 11:44:29;;;;;;;2.20;0.80;;;6.20;78.70;;;;;;5077406;28;20032;-74
2023/04/04 11:47:04;;;;;;;1.83;0.65;;;6.30;81.20;;;;;;5083072;28;20044;-74
2023/04/04 11:49:34;;;;;;;1.67;0.85;;;6.30;82.40;;;;;;5097129;27;20490;-74
2023/04/04 11:52:07;;;;;;;3.00;0.95;;;6.30;83.00;;;;;;5085183;28;20031;-74
2023/04/04 11:54:33;;;;;;;1.80;0.55;;;6.30;77.80;;;;;;5082436;28;20116;-74
2023/04/04 11:57:00;;;;;;;3.60;0.90;;;6.30;79.00;;;;;;5090291;28;20454;-74
2023/04/04 11:59:26;;;;;;;2.47;0.70;;;6.40;78.50;;;;;;5070777;28;20040;-74
2023/04/04 12:01:53;;;;;;;3.47;1.05;;;6.40;78.30;;;;;;5061940;28;20435;-74
2023/04/04 12:04:19;;;;;;;1.85;0.68;;;6.40;79.30;;;;;;5076051;28;20040;-74
2023/04/04 12:06:52;;;;;;;2.63;1.00;;;6.40;81.40;;;;;;5074613;28;20065;-74
2023/04/04 12:09:19;;;;;;;2.90;1.02;;;6.40;81.80;;;;;;5115234;27;20035;-74
2023/04/04 12:11:49;;;;;;;4.53;0.75;;;6.50;79.50;;;;;;5088348;28;20040;-75
2023/04/04 12:14:19;;;;;;;2.13;0.70;;;6.60;77.60;;;;;;5079461;28;20052;-74
2023/04/04 12:16:51;;;;;;;3.90;0.98;;;6.60;78.80;;;;;;5105329;27;20696;-75
2023/04/04 12:19:17;;;;;;;1.48;0.60;;;6.70;71.40;;;;;;5079119;28;20127;-75
2023/04/04 12:21:44;;;;;;;2.10;0.70;;;6.70;72.00;;;;;;5113278;27;20492;-75
2023/04/04 12:24:10;;;;;;;4.07;1.27;;;6.70;76.40;;;;;;5059713;28;20027;-75
2023/04/04 12:26:38;;;;;;;4.60;1.48;;;6.70;76.80;;;;;;5069277;28;20083;-75
2023/04/04 12:29:04;;;;;;;2.40;0.70;;;6.70;76.70;;;;;;5081479;28;20059;-73
2023/04/04 12:31:31;;;;;;;1.63;0.60;;;6.70;75.20;;;;;;5084659;28;20432;-74
2023/04/04 12:33:58;;;;;;;1.45;0.70;;;6.70;75.20;;;;;;5062130;28;20043;-74
2023/04/04 12:36:25;;;;;;;2.50;0.70;;;6.70;73.30;;;;;;5079758;28;20395;-74
2023/04/04 12:39:03;;;;;;;1.35;0.65;;;6.70;73.80;;;;;;5083911;28;20386;-74
2023/04/04 12:41:29;;;;;;;1.30;0.55;;;6.70;72.90;;;;;;5111475;27;20044;-74
2023/04/04 12:44:08;;;;;;;1.73;0.82;;;6.80;74.10;;;;;;5081303;28;20370;-74
2023/04/04 12:46:38;;;;;;;2.15;0.68;;;6.80;71.60;;;;;;5081763;28;20072;-74
2023/04/04 12:49:10;;;;;;;3.30;0.68;;;6.80;69.30;;;;;;5105786;27;20040;-74
2023/04/04 12:51:37;;;;;;;1.95;0.60;;;6.80;70.60;;;;;;5077354;28;20422;-74
2023/04/04 12:54:06;;;;;;;3.88;1.10;;;6.80;73.00;;;;;;5108095;27;20115;-74
2023/04/04 12:56:34;;;;;;;2.60;0.57;;;6.80;72.40;;;;;;5081629;28;20197;-74
2023/04/04 12:59:04;;;;;;;1.27;0.70;;;6.80;73.40;;;;;;5065936;28;20040;-74